KMKC/MKC METAR and TAF weather

Enter ICAO airport designator
Station Type Date Time Source
KMKC METAR 2019/06/26 05:54 UTC NOAA

KMKC 260554Z 20006KT 10SM CLR 27/21 A2998 RMK AO2 SLP144 T02670206 10311 20256 403220200 50014


Station Type Date Time Source
KMKC Decoded METAR 2019/06/26 05:54 UTC NOAA

KANSAS CITY DOWNTOWN AIRPORT , MO, United States (KMKC) 39-07N 094-36W 227M
Jun 26, 2019 - 01:54 AM EDT / 2019.06.26 0554 UTC
Wind: from the SSW (200 degrees) at 7 MPH (6 KT):0
Visibility: 10 mile(s):0
Sky conditions: clear
Temperature: 80.1 F (26.7 C)
Dew Point: 69.1 F (20.6 C)
Relative Humidity: 69%
Pressure (altimeter): 29.98 in. Hg (1015 hPa)
Pressure tendency: 0.04 inches (1.4 hPa) higher than three hours ago
ob: KMKC 260554Z 20006KT 10SM CLR 27/21 A2998 RMK AO2 SLP144 T02670206 10311 20256 403220200 50014
cycle: 6

Station Type Date Time Source
KMKC TAF 2019/06/26 06:22 UTC NOAA

TAF KMKC 260520Z 2606/2706 19007KT P6SM SCT150

Example: see airport list